createdAt,value
2023-01-17T00:11:18.794Z,3.2
2023-01-17T00:25:50.252Z,3.2
2023-01-17T00:40:21.728Z,3.1
2023-01-17T00:54:53.321Z,2.7
2023-01-17T01:09:23.636Z,2.7
2023-01-17T01:23:54.675Z,2.7
2023-01-17T01:38:26.443Z,2.8
2023-01-17T01:52:56.988Z,2.7
2023-01-17T02:07:42.571Z,2.6
2023-01-17T02:22:07.569Z,2.5
2023-01-17T02:36:40.155Z,2.5
2023-01-17T02:51:11.950Z,2.4
2023-01-17T03:05:42.739Z,2.5
2023-01-17T03:20:14.897Z,2.5
2023-01-17T03:34:46.567Z,2.3
2023-01-17T03:49:17.338Z,2.2
2023-01-17T04:03:48.908Z,2
2023-01-17T04:18:20.445Z,2
2023-01-17T04:32:50.342Z,2
2023-01-17T04:47:22.548Z,2
2023-01-17T05:01:54.013Z,2
2023-01-17T05:16:26.482Z,2
2023-01-17T05:30:58.270Z,1.8
2023-01-17T05:45:32.331Z,1.8
2023-01-17T06:00:03.349Z,1.9
2023-01-17T06:14:34.034Z,1.7
2023-01-17T06:29:05.595Z,2
2023-01-17T06:43:33.767Z,2
2023-01-17T06:58:06.135Z,1.9
2023-01-17T07:12:38.910Z,1.9
2023-01-17T07:27:11.217Z,1.9
2023-01-17T07:41:44.395Z,2.1
2023-01-17T07:56:14.082Z,1.9
2023-01-17T08:10:46.567Z,2.1
2023-01-17T08:25:15.177Z,1.9
2023-01-17T08:39:47.136Z,1.9
2023-01-17T08:54:18.109Z,1.9
2023-01-17T09:08:49.339Z,2
2023-01-17T09:23:21.179Z,2
2023-01-17T09:37:54.112Z,2.2
2023-01-17T09:52:25.119Z,2.3
2023-01-17T10:06:56.590Z,2.5
2023-01-17T10:21:28.328Z,2.4
2023-01-17T10:36:00.794Z,2.5
2023-01-17T10:50:33.349Z,2.5
2023-01-17T11:05:05.455Z,2.6
2023-01-17T11:19:37.679Z,2.4
2023-01-17T11:34:09.448Z,1.9
2023-01-17T11:48:41.774Z,3
2023-01-17T12:03:13.842Z,1.5
2023-01-17T12:17:46.617Z,2.1
2023-01-17T12:32:17.477Z,1.8
2023-01-17T12:46:48.781Z,1.6
2023-01-17T13:01:20.896Z,2.6
2023-01-17T13:15:51.913Z,2.5
2023-01-17T13:30:24.955Z,2.6
2023-01-17T13:44:57.511Z,2.4
2023-01-17T13:59:28.247Z,2.2
2023-01-17T14:13:58.130Z,1.7
2023-01-17T14:28:29.694Z,2
2023-01-17T14:43:00.511Z,2
2023-01-17T14:57:31.838Z,2.5
2023-01-17T15:12:03.432Z,2
2023-01-17T15:26:35.605Z,2.3
2023-01-17T15:41:06.915Z,1.8
2023-01-17T15:55:38.742Z,1.7
2023-01-17T16:10:10.747Z,1.7
2023-01-17T16:24:41.143Z,1.7
2023-01-17T16:39:11.225Z,1.5
2023-01-17T16:53:42.071Z,1.3
2023-01-17T17:08:13.483Z,1.2
2023-01-17T17:22:45.320Z,0.9
2023-01-17T17:37:18.027Z,1
2023-01-17T17:51:47.989Z,0.9
2023-01-17T18:06:19.232Z,0.5
2023-01-17T18:20:50.702Z,0.7
2023-01-17T18:35:22.512Z,0.6
2023-01-17T18:49:54.732Z,0.3
2023-01-17T19:04:25.980Z,0.1
2023-01-17T19:18:57.294Z,0.3
2023-01-17T19:33:29.332Z,0.1
2023-01-17T19:47:58.991Z,0.1
2023-01-17T20:02:31.220Z,0
2023-01-17T20:17:03.034Z,-0.2
2023-01-17T20:31:33.950Z,-0.3
2023-01-17T20:46:03.375Z,-0.5
2023-01-17T21:00:34.310Z,-0.5
2023-01-17T21:15:06.456Z,-0.6
2023-01-17T21:29:37.112Z,-0.6
2023-01-17T21:44:08.776Z,-0.7
2023-01-17T21:58:38.570Z,-0.9
2023-01-17T22:13:07.257Z,-0.9
2023-01-17T22:27:41.087Z,-1.1
2023-01-17T22:42:12.822Z,-1.2
2023-01-17T22:56:43.521Z,-1.4
2023-01-17T23:11:15.394Z,-1.3
2023-01-17T23:25:45.406Z,-1.2
2023-01-17T23:40:17.307Z,-1.2
2023-01-17T23:54:48.300Z,-1.5
